sensor_id;sensor_type;location;lat;lon;timestamp;temperature;humidity
63047;DHT22;62025;39.238;9.126;2023-11-19T00:00:47;15.40;68.70
63047;DHT22;62025;39.238;9.126;2023-11-19T00:03:13;15.30;69.20
63047;DHT22;62025;39.238;9.126;2023-11-19T00:05:39;15.20;69.80
63047;DHT22;62025;39.238;9.126;2023-11-19T00:08:07;15.10;70.00
63047;DHT22;62025;39.238;9.126;2023-11-19T00:10:34;15.10;70.20
63047;DHT22;62025;39.238;9.126;2023-11-19T00:13:00;15.00;70.40
63047;DHT22;62025;39.238;9.126;2023-11-19T00:15:25;14.80;71.20
63047;DHT22;62025;39.238;9.126;2023-11-19T00:17:51;14.80;72.20
63047;DHT22;62025;39.238;9.126;2023-11-19T00:20:18;15.30;70.30
63047;DHT22;62025;39.238;9.126;2023-11-19T00:22:45;15.50;69.20
63047;DHT22;62025;39.238;9.126;2023-11-19T00:25:13;15.70;68.50
63047;DHT22;62025;39.238;9.126;2023-11-19T00:27:39;15.70;68.40
63047;DHT22;62025;39.238;9.126;2023-11-19T00:30:06;15.80;68.20
63047;DHT22;62025;39.238;9.126;2023-11-19T00:32:33;15.80;68.00
63047;DHT22;62025;39.238;9.126;2023-11-19T00:34:59;15.80;67.80
63047;DHT22;62025;39.238;9.126;2023-11-19T00:37:25;15.80;67.70
63047;DHT22;62025;39.238;9.126;2023-11-19T00:39:51;15.90;67.60
63047;DHT22;62025;39.238;9.126;2023-11-19T00:42:18;15.80;67.50
63047;DHT22;62025;39.238;9.126;2023-11-19T00:44:43;15.80;67.60
63047;DHT22;62025;39.238;9.126;2023-11-19T00:47:09;15.90;67.50
63047;DHT22;62025;39.238;9.126;2023-11-19T00:49:35;15.80;67.60
63047;DHT22;62025;39.238;9.126;2023-11-19T00:52:01;15.80;67.60
63047;DHT22;62025;39.238;9.126;2023-11-19T00:54:28;15.80;67.60
63047;DHT22;62025;39.238;9.126;2023-11-19T00:56:53;15.80;67.70
63047;DHT22;62025;39.238;9.126;2023-11-19T00:59:20;15.80;67.70
63047;DHT22;62025;39.238;9.126;2023-11-19T01:01:47;15.80;67.50
63047;DHT22;62025;39.238;9.126;2023-11-19T01:04:16;15.80;67.50
63047;DHT22;62025;39.238;9.126;2023-11-19T01:06:42;15.80;67.50
63047;DHT22;62025;39.238;9.126;2023-11-19T01:09:08;15.80;67.70
63047;DHT22;62025;39.238;9.126;2023-11-19T01:11:35;15.80;67.50
63047;DHT22;62025;39.238;9.126;2023-11-19T01:14:01;15.80;67.50
63047;DHT22;62025;39.238;9.126;2023-11-19T01:16:27;15.80;67.30
63047;DHT22;62025;39.238;9.126;2023-11-19T01:18:53;15.80;67.20
63047;DHT22;62025;39.238;9.126;2023-11-19T01:21:19;15.80;67.30
63047;DHT22;62025;39.238;9.126;2023-11-19T01:23:45;15.80;67.30
63047;DHT22;62025;39.238;9.126;2023-11-19T01:26:12;15.80;67.20
63047;DHT22;62025;39.238;9.126;2023-11-19T01:28:41;15.90;67.10
63047;DHT22;62025;39.238;9.126;2023-11-19T01:31:15;15.90;67.00
63047;DHT22;62025;39.238;9.126;2023-11-19T01:33:41;15.90;67.00
63047;DHT22;62025;39.238;9.126;2023-11-19T01:36:08;15.90;66.90
63047;DHT22;62025;39.238;9.126;2023-11-19T01:38:34;15.90;66.90
63047;DHT22;62025;39.238;9.126;2023-11-19T01:41:01;15.80;67.00
63047;DHT22;62025;39.238;9.126;2023-11-19T01:43:35;15.80;67.00
63047;DHT22;62025;39.238;9.126;2023-11-19T01:46:01;15.90;66.80
63047;DHT22;62025;39.238;9.126;2023-11-19T01:48:29;15.90;66.80
63047;DHT22;62025;39.238;9.126;2023-11-19T01:50:57;15.90;66.80
63047;DHT22;62025;39.238;9.126;2023-11-19T01:53:24;15.90;66.70
63047;DHT22;62025;39.238;9.126;2023-11-19T01:55:50;15.90;66.70
63047;DHT22;62025;39.238;9.126;2023-11-19T01:58:17;15.90;66.80
63047;DHT22;62025;39.238;9.126;2023-11-19T02:00:44;15.80;66.80
63047;DHT22;62025;39.238;9.126;2023-11-19T02:03:11;15.80;66.80
63047;DHT22;62025;39.238;9.126;2023-11-19T02:05:37;15.80;66.80
63047;DHT22;62025;39.238;9.126;2023-11-19T02:08:04;15.80;67.00
63047;DHT22;62025;39.238;9.126;2023-11-19T02:10:30;15.80;67.00
63047;DHT22;62025;39.238;9.126;2023-11-19T02:12:58;15.80;67.00
63047;DHT22;62025;39.238;9.126;2023-11-19T02:15:24;15.80;67.20
63047;DHT22;62025;39.238;9.126;2023-11-19T02:17:52;15.80;67.30
63047;DHT22;62025;39.238;9.126;2023-11-19T02:20:18;15.80;67.00
63047;DHT22;62025;39.238;9.126;2023-11-19T02:22:46;15.90;66.90
63047;DHT22;62025;39.238;9.126;2023-11-19T02:25:30;15.90;66.80
63047;DHT22;62025;39.238;9.126;2023-11-19T02:27:58;15.80;66.80
63047;DHT22;62025;39.238;9.126;2023-11-19T02:30:25;15.90;66.70
63047;DHT22;62025;39.238;9.126;2023-11-19T02:32:58;15.90;66.70
63047;DHT22;62025;39.238;9.126;2023-11-19T02:35:26;15.90;66.80
63047;DHT22;62025;39.238;9.126;2023-11-19T02:37:53;15.90;66.70
63047;DHT22;62025;39.238;9.126;2023-11-19T02:40:19;15.90;66.70
63047;DHT22;62025;39.238;9.126;2023-11-19T02:42:45;15.90;66.70
63047;DHT22;62025;39.238;9.126;2023-11-19T02:45:11;16.00;66.60
63047;DHT22;62025;39.238;9.126;2023-11-19T02:47:41;16.00;66.60
63047;DHT22;62025;39.238;9.126;2023-11-19T02:50:10;15.90;66.60
63047;DHT22;62025;39.238;9.126;2023-11-19T02:52:44;15.90;66.60
63047;DHT22;62025;39.238;9.126;2023-11-19T02:55:12;15.90;66.60
63047;DHT22;62025;39.238;9.126;2023-11-19T02:57:39;16.00;66.60
63047;DHT22;62025;39.238;9.126;2023-11-19T03:00:23;16.00;66.50
63047;DHT22;62025;39.238;9.126;2023-11-19T03:02:50;16.00;66.60
63047;DHT22;62025;39.238;9.126;2023-11-19T03:05:31;16.00;66.40
63047;DHT22;62025;39.238;9.126;2023-11-19T03:07:56;16.00;66.50
63047;DHT22;62025;39.238;9.126;2023-11-19T03:10:23;16.00;66.40
63047;DHT22;62025;39.238;9.126;2023-11-19T03:12:49;16.00;66.40
63047;DHT22;62025;39.238;9.126;2023-11-19T03:15:15;16.00;66.30
63047;DHT22;62025;39.238;9.126;2023-11-19T03:17:42;16.00;66.20
63047;DHT22;62025;39.238;9.126;2023-11-19T03:20:11;16.00;66.10
63047;DHT22;62025;39.238;9.126;2023-11-19T03:22:41;16.00;66.10
63047;DHT22;62025;39.238;9.126;2023-11-19T03:25:07;16.00;66.30
63047;DHT22;62025;39.238;9.126;2023-11-19T03:27:37;16.00;66.40
63047;DHT22;62025;39.238;9.126;2023-11-19T03:30:09;16.00;66.40
63047;DHT22;62025;39.238;9.126;2023-11-19T03:32:36;16.00;66.40
63047;DHT22;62025;39.238;9.126;2023-11-19T03:35:02;16.10;66.30
63047;DHT22;62025;39.238;9.126;2023-11-19T03:37:30;16.10;66.40
63047;DHT22;62025;39.238;9.126;2023-11-19T03:39:57;16.10;66.40
63047;DHT22;62025;39.238;9.126;2023-11-19T03:42:29;16.10;66.30
63047;DHT22;62025;39.238;9.126;2023-11-19T03:44:57;16.20;66.20
63047;DHT22;62025;39.238;9.126;2023-11-19T03:47:23;16.10;66.20
63047;DHT22;62025;39.238;9.126;2023-11-19T03:49:50;16.20;66.40
63047;DHT22;62025;39.238;9.126;2023-11-19T03:52:16;16.20;66.60
63047;DHT22;62025;39.238;9.126;2023-11-19T03:54:43;16.20;66.60
63047;DHT22;62025;39.238;9.126;2023-11-19T03:57:08;16.10;66.70
63047;DHT22;62025;39.238;9.126;2023-11-19T03:59:36;16.20;66.80
63047;DHT22;62025;39.238;9.126;2023-11-19T04:02:02;16.30;66.50
63047;DHT22;62025;39.238;9.126;2023-11-19T04:04:28;16.30;66.40
63047;DHT22;62025;39.238;9.126;2023-11-19T04:06:58;16.20;66.20
63047;DHT22;62025;39.238;9.126;2023-11-19T04:09:25;16.20;66.20
63047;DHT22;62025;39.238;9.126;2023-11-19T04:11:50;16.20;66.30
63047;DHT22;62025;39.238;9.126;2023-11-19T04:14:16;16.10;66.30
63047;DHT22;62025;39.238;9.126;2023-11-19T04:16:44;16.20;66.30
63047;DHT22;62025;39.238;9.126;2023-11-19T04:19:11;16.20;66.20
63047;DHT22;62025;39.238;9.126;2023-11-19T04:21:40;16.20;66.20
63047;DHT22;62025;39.238;9.126;2023-11-19T04:24:07;16.20;66.20
63047;DHT22;62025;39.238;9.126;2023-11-19T04:26:33;16.20;66.20
63047;DHT22;62025;39.238;9.126;2023-11-19T04:28:59;16.20;66.20
63047;DHT22;62025;39.238;9.126;2023-11-19T04:31:29;16.20;66.10
63047;DHT22;62025;39.238;9.126;2023-11-19T04:33:57;16.10;66.20
63047;DHT22;62025;39.238;9.126;2023-11-19T04:36:23;16.10;66.40
63047;DHT22;62025;39.238;9.126;2023-11-19T04:38:50;16.10;66.60
63047;DHT22;62025;39.238;9.126;2023-11-19T04:41:16;16.00;66.60
63047;DHT22;62025;39.238;9.126;2023-11-19T04:43:42;16.10;66.50
63047;DHT22;62025;39.238;9.126;2023-11-19T04:46:09;16.00;66.60
63047;DHT22;62025;39.238;9.126;2023-11-19T04:48:35;16.00;66.70
63047;DHT22;62025;39.238;9.126;2023-11-19T04:51:04;16.10;66.50
63047;DHT22;62025;39.238;9.126;2023-11-19T04:53:29;16.10;66.50
63047;DHT22;62025;39.238;9.126;2023-11-19T04:55:55;16.10;66.70
63047;DHT22;62025;39.238;9.126;2023-11-19T04:58:21;16.00;66.80
63047;DHT22;62025;39.238;9.126;2023-11-19T05:00:47;16.10;66.70
63047;DHT22;62025;39.238;9.126;2023-11-19T05:03:13;16.10;66.80
63047;DHT22;62025;39.238;9.126;2023-11-19T05:05:38;16.10;66.90
63047;DHT22;62025;39.238;9.126;2023-11-19T05:08:04;16.10;66.90
63047;DHT22;62025;39.238;9.126;2023-11-19T05:10:30;16.20;66.80
63047;DHT22;62025;39.238;9.126;2023-11-19T05:12:56;16.10;66.90
63047;DHT22;62025;39.238;9.126;2023-11-19T05:15:22;16.20;66.90
63047;DHT22;62025;39.238;9.126;2023-11-19T05:17:48;16.20;67.00
63047;DHT22;62025;39.238;9.126;2023-11-19T05:20:14;16.20;67.00
63047;DHT22;62025;39.238;9.126;2023-11-19T05:22:41;16.20;67.10
63047;DHT22;62025;39.238;9.126;2023-11-19T05:25:08;16.20;67.20
63047;DHT22;62025;39.238;9.126;2023-11-19T05:27:35;16.20;67.40
63047;DHT22;62025;39.238;9.126;2023-11-19T05:30:02;16.20;67.30
63047;DHT22;62025;39.238;9.126;2023-11-19T05:32:28;16.30;67.40
63047;DHT22;62025;39.238;9.126;2023-11-19T05:34:54;16.20;67.60
63047;DHT22;62025;39.238;9.126;2023-11-19T05:37:20;16.20;67.60
63047;DHT22;62025;39.238;9.126;2023-11-19T05:39:45;16.20;67.70
63047;DHT22;62025;39.238;9.126;2023-11-19T05:42:11;16.20;67.90
63047;DHT22;62025;39.238;9.126;2023-11-19T05:44:37;16.20;68.10
63047;DHT22;62025;39.238;9.126;2023-11-19T05:47:03;16.20;68.10
63047;DHT22;62025;39.238;9.126;2023-11-19T05:49:29;16.30;68.00
63047;DHT22;62025;39.238;9.126;2023-11-19T05:51:56;16.30;68.30
63047;DHT22;62025;39.238;9.126;2023-11-19T05:54:23;16.20;68.40
63047;DHT22;62025;39.238;9.126;2023-11-19T05:56:48;16.30;68.40
63047;DHT22;62025;39.238;9.126;2023-11-19T05:59:15;16.30;68.50
63047;DHT22;62025;39.238;9.126;2023-11-19T06:01:43;16.30;68.40
63047;DHT22;62025;39.238;9.126;2023-11-19T06:04:09;16.30;68.40
63047;DHT22;62025;39.238;9.126;2023-11-19T06:06:36;16.30;68.30
63047;DHT22;62025;39.238;9.126;2023-11-19T06:09:02;16.30;68.40
63047;DHT22;62025;39.238;9.126;2023-11-19T06:11:28;16.40;68.50
63047;DHT22;62025;39.238;9.126;2023-11-19T06:13:54;16.30;68.70
63047;DHT22;62025;39.238;9.126;2023-11-19T06:16:22;16.30;69.00
63047;DHT22;62025;39.238;9.126;2023-11-19T06:18:48;16.40;69.00
63047;DHT22;62025;39.238;9.126;2023-11-19T06:21:14;16.40;69.00
63047;DHT22;62025;39.238;9.126;2023-11-19T06:24:05;16.30;69.20
63047;DHT22;62025;39.238;9.126;2023-11-19T06:26:30;16.40;69.10
63047;DHT22;62025;39.238;9.126;2023-11-19T06:28:56;16.40;69.20
63047;DHT22;62025;39.238;9.126;2023-11-19T06:31:22;16.40;69.30
63047;DHT22;62025;39.238;9.126;2023-11-19T06:33:48;16.40;69.30
63047;DHT22;62025;39.238;9.126;2023-11-19T06:36:16;16.40;69.20
63047;DHT22;62025;39.238;9.126;2023-11-19T06:38:43;16.40;69.00
63047;DHT22;62025;39.238;9.126;2023-11-19T06:41:09;16.50;69.00
63047;DHT22;62025;39.238;9.126;2023-11-19T06:43:37;16.50;69.00
63047;DHT22;62025;39.238;9.126;2023-11-19T06:46:04;16.40;69.20
63047;DHT22;62025;39.238;9.126;2023-11-19T06:48:34;16.50;69.20
63047;DHT22;62025;39.238;9.126;2023-11-19T06:51:00;16.50;69.20
63047;DHT22;62025;39.238;9.126;2023-11-19T06:53:26;16.50;69.30
63047;DHT22;62025;39.238;9.126;2023-11-19T06:55:54;16.50;69.30
63047;DHT22;62025;39.238;9.126;2023-11-19T06:58:20;16.50;69.40
63047;DHT22;62025;39.238;9.126;2023-11-19T07:00:45;16.50;69.30
63047;DHT22;62025;39.238;9.126;2023-11-19T07:03:12;16.50;69.30
63047;DHT22;62025;39.238;9.126;2023-11-19T07:05:38;16.60;69.30
63047;DHT22;62025;39.238;9.126;2023-11-19T07:08:06;16.60;69.30
63047;DHT22;62025;39.238;9.126;2023-11-19T07:10:33;16.60;69.40
63047;DHT22;62025;39.238;9.126;2023-11-19T07:12:59;16.60;69.50
63047;DHT22;62025;39.238;9.126;2023-11-19T07:15:25;16.60;69.40
63047;DHT22;62025;39.238;9.126;2023-11-19T07:17:51;16.70;69.40
63047;DHT22;62025;39.238;9.126;2023-11-19T07:20:20;16.60;69.40
63047;DHT22;62025;39.238;9.126;2023-11-19T07:22:45;16.70;69.50
63047;DHT22;62025;39.238;9.126;2023-11-19T07:25:14;16.70;69.40
63047;DHT22;62025;39.238;9.126;2023-11-19T07:27:40;16.70;69.30
63047;DHT22;62025;39.238;9.126;2023-11-19T07:30:06;16.80;69.20
63047;DHT22;62025;39.238;9.126;2023-11-19T07:32:35;16.80;69.20
63047;DHT22;62025;39.238;9.126;2023-11-19T07:35:01;16.80;69.20
63047;DHT22;62025;39.238;9.126;2023-11-19T07:37:27;16.80;69.00
63047;DHT22;62025;39.238;9.126;2023-11-19T07:39:52;16.80;69.20
63047;DHT22;62025;39.238;9.126;2023-11-19T07:42:18;16.80;69.30
63047;DHT22;62025;39.238;9.126;2023-11-19T07:44:44;16.80;69.40
63047;DHT22;62025;39.238;9.126;2023-11-19T07:47:10;16.80;69.50
63047;DHT22;62025;39.238;9.126;2023-11-19T07:49:36;16.80;69.60
63047;DHT22;62025;39.238;9.126;2023-11-19T07:52:02;16.80;69.60
63047;DHT22;62025;39.238;9.126;2023-11-19T07:54:28;16.80;69.70
63047;DHT22;62025;39.238;9.126;2023-11-19T07:56:55;16.80;69.80
63047;DHT22;62025;39.238;9.126;2023-11-19T07:59:21;16.80;69.90
63047;DHT22;62025;39.238;9.126;2023-11-19T08:01:47;16.80;70.20
63047;DHT22;62025;39.238;9.126;2023-11-19T08:04:13;16.90;70.20
63047;DHT22;62025;39.238;9.126;2023-11-19T08:06:39;16.90;70.20
63047;DHT22;62025;39.238;9.126;2023-11-19T08:09:05;16.90;70.20
63047;DHT22;62025;39.238;9.126;2023-11-19T08:11:32;17.00;70.30
63047;DHT22;62025;39.238;9.126;2023-11-19T08:13:59;16.90;70.30
63047;DHT22;62025;39.238;9.126;2023-11-19T08:16:25;17.00;70.20
63047;DHT22;62025;39.238;9.126;2023-11-19T08:18:50;17.00;70.30
63047;DHT22;62025;39.238;9.126;2023-11-19T08:21:16;17.00;70.20
63047;DHT22;62025;39.238;9.126;2023-11-19T08:23:42;17.00;70.30
63047;DHT22;62025;39.238;9.126;2023-11-19T08:26:10;17.00;70.30
63047;DHT22;62025;39.238;9.126;2023-11-19T08:28:37;17.00;70.50
63047;DHT22;62025;39.238;9.126;2023-11-19T08:31:04;17.00;70.70
63047;DHT22;62025;39.238;9.126;2023-11-19T08:33:30;17.10;70.90
63047;DHT22;62025;39.238;9.126;2023-11-19T08:35:56;17.00;70.90
63047;DHT22;62025;39.238;9.126;2023-11-19T08:38:22;17.10;71.10
63047;DHT22;62025;39.238;9.126;2023-11-19T08:40:48;17.10;71.30
63047;DHT22;62025;39.238;9.126;2023-11-19T08:43:14;17.20;71.50
63047;DHT22;62025;39.238;9.126;2023-11-19T08:45:41;17.20;71.50
63047;DHT22;62025;39.238;9.126;2023-11-19T08:48:07;17.20;71.60
63047;DHT22;62025;39.238;9.126;2023-11-19T08:50:34;17.30;71.90
63047;DHT22;62025;39.238;9.126;2023-11-19T08:53:00;17.30;72.00
63047;DHT22;62025;39.238;9.126;2023-11-19T08:55:26;17.30;71.80
63047;DHT22;62025;39.238;9.126;2023-11-19T08:57:52;17.40;71.80
63047;DHT22;62025;39.238;9.126;2023-11-19T09:00:18;17.60;71.70
63047;DHT22;62025;39.238;9.126;2023-11-19T09:02:43;17.80;70.80
63047;DHT22;62025;39.238;9.126;2023-11-19T09:05:09;18.00;70.30
63047;DHT22;62025;39.238;9.126;2023-11-19T09:07:35;18.30;69.30
63047;DHT22;62025;39.238;9.126;2023-11-19T09:10:01;18.40;68.70
63047;DHT22;62025;39.238;9.126;2023-11-19T09:12:27;18.50;68.50
63047;DHT22;62025;39.238;9.126;2023-11-19T09:14:53;18.60;68.40
63047;DHT22;62025;39.238;9.126;2023-11-19T09:17:18;19.40;66.80
63047;DHT22;62025;39.238;9.126;2023-11-19T09:19:44;20.20;64.50
63047;DHT22;62025;39.238;9.126;2023-11-19T09:22:11;20.30;63.80
63047;DHT22;62025;39.238;9.126;2023-11-19T09:24:37;20.20;64.20
63047;DHT22;62025;39.238;9.126;2023-11-19T09:27:03;20.40;64.20
63047;DHT22;62025;39.238;9.126;2023-11-19T09:29:31;20.80;63.10
63047;DHT22;62025;39.238;9.126;2023-11-19T09:31:57;20.90;62.60
63047;DHT22;62025;39.238;9.126;2023-11-19T09:34:23;21.40;61.50
63047;DHT22;62025;39.238;9.126;2023-11-19T09:36:49;21.80;60.60
63047;DHT22;62025;39.238;9.126;2023-11-19T09:39:14;22.00;59.70
63047;DHT22;62025;39.238;9.126;2023-11-19T09:41:41;22.30;59.20
63047;DHT22;62025;39.238;9.126;2023-11-19T09:44:09;22.30;59.00
63047;DHT22;62025;39.238;9.126;2023-11-19T09:46:35;22.70;58.00
63047;DHT22;62025;39.238;9.126;2023-11-19T09:49:02;22.80;57.50
63047;DHT22;62025;39.238;9.126;2023-11-19T09:51:29;22.90;57.20
63047;DHT22;62025;39.238;9.126;2023-11-19T09:53:55;22.80;57.10
63047;DHT22;62025;39.238;9.126;2023-11-19T09:56:22;22.60;57.80
63047;DHT22;62025;39.238;9.126;2023-11-19T09:58:48;22.70;57.70
63047;DHT22;62025;39.238;9.126;2023-11-19T10:01:14;22.50;58.10
63047;DHT22;62025;39.238;9.126;2023-11-19T10:03:41;22.30;58.80
63047;DHT22;62025;39.238;9.126;2023-11-19T10:06:10;22.40;59.10
63047;DHT22;62025;39.238;9.126;2023-11-19T10:08:40;22.70;58.40
63047;DHT22;62025;39.238;9.126;2023-11-19T10:11:07;23.00;57.60
63047;DHT22;62025;39.238;9.126;2023-11-19T10:13:36;23.30;56.90
63047;DHT22;62025;39.238;9.126;2023-11-19T10:16:12;23.50;56.30
63047;DHT22;62025;39.238;9.126;2023-11-19T10:18:46;23.70;55.80
63047;DHT22;62025;39.238;9.126;2023-11-19T10:21:13;23.80;55.00
63047;DHT22;62025;39.238;9.126;2023-11-19T10:23:55;23.60;55.40
63047;DHT22;62025;39.238;9.126;2023-11-19T10:26:23;23.70;55.50
63047;DHT22;62025;39.238;9.126;2023-11-19T10:28:49;23.30;56.20
63047;DHT22;62025;39.238;9.126;2023-11-19T10:31:16;22.90;57.30
63047;DHT22;62025;39.238;9.126;2023-11-19T10:33:44;22.60;58.00
63047;DHT22;62025;39.238;9.126;2023-11-19T10:36:11;22.30;59.10
63047;DHT22;62025;39.238;9.126;2023-11-19T10:38:41;22.10;59.80
63047;DHT22;62025;39.238;9.126;2023-11-19T10:41:29;21.90;60.40
63047;DHT22;62025;39.238;9.126;2023-11-19T10:43:56;21.70;60.90
63047;DHT22;62025;39.238;9.126;2023-11-19T10:46:22;21.50;61.50
63047;DHT22;62025;39.238;9.126;2023-11-19T10:48:52;21.40;61.80
63047;DHT22;62025;39.238;9.126;2023-11-19T10:51:20;21.30;62.10
63047;DHT22;62025;39.238;9.126;2023-11-19T10:53:50;21.20;62.50
63047;DHT22;62025;39.238;9.126;2023-11-19T10:56:20;21.10;63.10
63047;DHT22;62025;39.238;9.126;2023-11-19T10:58:51;21.00;63.60
63047;DHT22;62025;39.238;9.126;2023-11-19T11:01:24;21.00;63.90
63047;DHT22;62025;39.238;9.126;2023-11-19T11:03:53;20.90;64.20
63047;DHT22;62025;39.238;9.126;2023-11-19T11:06:20;20.90;64.50
63047;DHT22;62025;39.238;9.126;2023-11-19T11:08:48;20.90;64.60
63047;DHT22;62025;39.238;9.126;2023-11-19T11:11:15;20.90;64.80
63047;DHT22;62025;39.238;9.126;2023-11-19T11:13:47;20.80;65.00
63047;DHT22;62025;39.238;9.126;2023-11-19T11:16:16;20.80;64.80
63047;DHT22;62025;39.238;9.126;2023-11-19T11:18:47;20.80;65.00
63047;DHT22;62025;39.238;9.126;2023-11-19T11:21:21;20.80;65.10
63047;DHT22;62025;39.238;9.126;2023-11-19T11:35:30;20.60;65.60
63047;DHT22;62025;39.238;9.126;2023-11-19T11:38:03;20.70;65.40
63047;DHT22;62025;39.238;9.126;2023-11-19T11:40:29;20.70;65.30
63047;DHT22;62025;39.238;9.126;2023-11-19T11:42:57;20.70;65.30
63047;DHT22;62025;39.238;9.126;2023-11-19T11:45:36;20.70;65.40
63047;DHT22;62025;39.238;9.126;2023-11-19T11:48:10;20.70;65.30
63047;DHT22;62025;39.238;9.126;2023-11-19T11:50:48;20.70;65.40
63047;DHT22;62025;39.238;9.126;2023-11-19T11:53:19;20.70;65.50
63047;DHT22;62025;39.238;9.126;2023-11-19T11:58:15;20.70;65.80
63047;DHT22;62025;39.238;9.126;2023-11-19T12:00:42;20.70;65.80
63047;DHT22;62025;39.238;9.126;2023-11-19T12:03:09;20.60;66.00
63047;DHT22;62025;39.238;9.126;2023-11-19T12:05:42;20.60;65.90
63047;DHT22;62025;39.238;9.126;2023-11-19T12:08:10;20.70;65.70
63047;DHT22;62025;39.238;9.126;2023-11-19T12:10:48;20.70;65.30
63047;DHT22;62025;39.238;9.126;2023-11-19T12:13:15;20.70;65.20
63047;DHT22;62025;39.238;9.126;2023-11-19T12:16:25;20.70;65.30
63047;DHT22;62025;39.238;9.126;2023-11-19T12:18:32;20.80;65.30
63047;DHT22;62025;39.238;9.126;2023-11-19T12:20:59;20.80;65.30
63047;DHT22;62025;39.238;9.126;2023-11-19T12:23:32;20.80;65.00
63047;DHT22;62025;39.238;9.126;2023-11-19T12:25:58;20.80;64.40
63047;DHT22;62025;39.238;9.126;2023-11-19T12:28:24;20.70;64.20
63047;DHT22;62025;39.238;9.126;2023-11-19T12:30:52;20.70;64.10
63047;DHT22;62025;39.238;9.126;2023-11-19T12:33:19;20.70;64.20
63047;DHT22;62025;39.238;9.126;2023-11-19T12:35:46;20.80;63.90
63047;DHT22;62025;39.238;9.126;2023-11-19T12:38:22;20.70;63.70
63047;DHT22;62025;39.238;9.126;2023-11-19T12:41:05;20.70;63.40
63047;DHT22;62025;39.238;9.126;2023-11-19T12:43:32;20.70;63.40
63047;DHT22;62025;39.238;9.126;2023-11-19T12:46:00;20.70;63.20
63047;DHT22;62025;39.238;9.126;2023-11-19T12:48:26;20.70;63.30
63047;DHT22;62025;39.238;9.126;2023-11-19T12:53:25;20.70;63.00
63047;DHT22;62025;39.238;9.126;2023-11-19T12:55:52;20.70;63.00
63047;DHT22;62025;39.238;9.126;2023-11-19T12:58:36;20.70;62.90
63047;DHT22;62025;39.238;9.126;2023-11-19T13:01:07;20.80;62.80
63047;DHT22;62025;39.238;9.126;2023-11-19T13:03:37;20.70;62.90
63047;DHT22;62025;39.238;9.126;2023-11-19T13:06:09;20.70;62.90
63047;DHT22;62025;39.238;9.126;2023-11-19T13:08:43;20.70;62.80
63047;DHT22;62025;39.238;9.126;2023-11-19T13:11:12;20.70;62.60
63047;DHT22;62025;39.238;9.126;2023-11-19T13:13:57;20.70;62.80
63047;DHT22;62025;39.238;9.126;2023-11-19T13:16:24;20.70;62.70
63047;DHT22;62025;39.238;9.126;2023-11-19T13:18:51;20.70;62.40
63047;DHT22;62025;39.238;9.126;2023-11-19T13:21:17;20.80;62.20
63047;DHT22;62025;39.238;9.126;2023-11-19T13:23:43;20.70;62.30
63047;DHT22;62025;39.238;9.126;2023-11-19T13:26:10;20.70;62.30
63047;DHT22;62025;39.238;9.126;2023-11-19T13:28:37;20.70;62.40
63047;DHT22;62025;39.238;9.126;2023-11-19T13:31:03;20.70;62.60
63047;DHT22;62025;39.238;9.126;2023-11-19T13:33:29;20.70;62.70
63047;DHT22;62025;39.238;9.126;2023-11-19T13:35:56;20.70;62.90
63047;DHT22;62025;39.238;9.126;2023-11-19T13:38:22;20.70;63.20
63047;DHT22;62025;39.238;9.126;2023-11-19T13:40:51;20.70;63.10
63047;DHT22;62025;39.238;9.126;2023-11-19T13:43:17;20.70;62.80
63047;DHT22;62025;39.238;9.126;2023-11-19T13:45:43;20.70;62.90
63047;DHT22;62025;39.238;9.126;2023-11-19T13:48:09;20.70;62.80
63047;DHT22;62025;39.238;9.126;2023-11-19T13:50:35;20.80;62.90
63047;DHT22;62025;39.238;9.126;2023-11-19T13:53:00;20.80;63.00
63047;DHT22;62025;39.238;9.126;2023-11-19T13:55:26;20.80;63.20
63047;DHT22;62025;39.238;9.126;2023-11-19T13:57:53;20.80;63.30
63047;DHT22;62025;39.238;9.126;2023-11-19T14:00:18;20.70;63.20
63047;DHT22;62025;39.238;9.126;2023-11-19T14:02:46;20.70;63.30
63047;DHT22;62025;39.238;9.126;2023-11-19T14:05:13;20.80;63.30
63047;DHT22;62025;39.238;9.126;2023-11-19T14:07:42;20.80;63.40
63047;DHT22;62025;39.238;9.126;2023-11-19T14:10:09;20.80;63.50
63047;DHT22;62025;39.238;9.126;2023-11-19T14:12:39;20.80;63.70
63047;DHT22;62025;39.238;9.126;2023-11-19T14:15:06;20.80;63.90
63047;DHT22;62025;39.238;9.126;2023-11-19T14:17:33;20.80;64.00
63047;DHT22;62025;39.238;9.126;2023-11-19T14:20:00;20.80;64.10
63047;DHT22;62025;39.238;9.126;2023-11-19T14:22:26;20.70;64.10
63047;DHT22;62025;39.238;9.126;2023-11-19T14:24:51;20.70;64.20
63047;DHT22;62025;39.238;9.126;2023-11-19T14:27:17;20.70;64.30
63047;DHT22;62025;39.238;9.126;2023-11-19T14:29:43;20.70;64.60
63047;DHT22;62025;39.238;9.126;2023-11-19T14:32:10;20.70;64.70
63047;DHT22;62025;39.238;9.126;2023-11-19T14:34:36;20.70;64.90
63047;DHT22;62025;39.238;9.126;2023-11-19T14:37:05;20.70;65.10
63047;DHT22;62025;39.238;9.126;2023-11-19T14:39:32;20.60;65.30
63047;DHT22;62025;39.238;9.126;2023-11-19T14:41:58;20.60;65.80
63047;DHT22;62025;39.238;9.126;2023-11-19T14:44:27;20.60;66.10
63047;DHT22;62025;39.238;9.126;2023-11-19T14:46:53;20.70;66.40
63047;DHT22;62025;39.238;9.126;2023-11-19T14:49:18;20.70;66.70
63047;DHT22;62025;39.238;9.126;2023-11-19T14:51:44;20.60;66.90
63047;DHT22;62025;39.238;9.126;2023-11-19T14:54:10;20.60;66.90
63047;DHT22;62025;39.238;9.126;2023-11-19T14:56:36;20.60;66.90
63047;DHT22;62025;39.238;9.126;2023-11-19T14:59:01;20.60;66.70
63047;DHT22;62025;39.238;9.126;2023-11-19T15:01:27;20.60;66.70
63047;DHT22;62025;39.238;9.126;2023-11-19T15:03:54;20.50;66.30
63047;DHT22;62025;39.238;9.126;2023-11-19T15:06:23;20.50;66.20
63047;DHT22;62025;39.238;9.126;2023-11-19T15:08:51;20.50;66.20
63047;DHT22;62025;39.238;9.126;2023-11-19T15:11:17;20.50;66.40
63047;DHT22;62025;39.238;9.126;2023-11-19T15:13:42;20.50;66.80
63047;DHT22;62025;39.238;9.126;2023-11-19T15:16:08;20.40;67.00
63047;DHT22;62025;39.238;9.126;2023-11-19T15:18:37;20.40;67.20
63047;DHT22;62025;39.238;9.126;2023-11-19T15:21:04;20.40;67.40
63047;DHT22;62025;39.238;9.126;2023-11-19T15:23:30;20.40;67.50
63047;DHT22;62025;39.238;9.126;2023-11-19T15:25:56;20.40;67.70
63047;DHT22;62025;39.238;9.126;2023-11-19T15:28:22;20.40;67.80
63047;DHT22;62025;39.238;9.126;2023-11-19T15:30:48;20.30;67.90
63047;DHT22;62025;39.238;9.126;2023-11-19T15:33:13;20.30;67.90
63047;DHT22;62025;39.238;9.126;2023-11-19T15:35:40;20.30;68.10
63047;DHT22;62025;39.238;9.126;2023-11-19T15:38:06;20.30;68.20
63047;DHT22;62025;39.238;9.126;2023-11-19T15:40:35;20.20;68.20
63047;DHT22;62025;39.238;9.126;2023-11-19T15:43:01;19.90;68.30
63047;DHT22;62025;39.238;9.126;2023-11-19T15:45:27;19.60;69.90
63047;DHT22;62025;39.238;9.126;2023-11-19T15:47:53;19.40;71.00